createdAt,value
2023-01-06T12:58:55.935Z,71.04
2023-01-06T13:07:35.004Z,71.41
2023-01-06T13:12:44.986Z,72.21
2023-01-06T13:17:56.882Z,72.48
2023-01-06T13:23:30.071Z,72.74
2023-01-06T13:28:40.400Z,72.87
2023-01-06T13:34:06.704Z,73.28
2023-01-06T13:39:39.782Z,73.55
2023-01-06T13:44:44.877Z,73.87
2023-01-06T13:49:48.687Z,74.29
2023-01-06T13:54:52.409Z,74.85
2023-01-06T14:00:05.237Z,75.16
2023-01-06T14:05:21.449Z,75.30
2023-01-06T14:10:42.977Z,75.49
2023-01-06T14:15:57.202Z,75.78
2023-01-06T14:21:03.295Z,75.91
2023-01-06T14:26:07.085Z,76.23
2023-01-06T14:31:26.264Z,76.28
2023-01-06T14:36:34.162Z,76.61
2023-01-06T14:41:47.759Z,76.99
2023-01-06T14:52:55.232Z,77.41
2023-01-06T14:57:59.077Z,77.65
2023-01-06T15:03:19.165Z,77.76
2023-01-06T15:08:23.843Z,78.05
2023-01-06T15:13:27.494Z,78.36
2023-01-06T15:18:35.091Z,78.61
2023-01-06T15:23:44.792Z,78.76
2023-01-06T15:29:03.111Z,79.06
2023-01-06T15:34:20.337Z,79.45
2023-01-06T15:39:28.981Z,79.47
2023-01-06T15:44:35.073Z,79.86
2023-01-06T15:49:50.951Z,79.96
2023-01-06T15:54:56.370Z,80.49
2023-01-06T16:00:03.367Z,80.86
2023-01-06T16:05:39.911Z,81.26
2023-01-06T16:10:45.866Z,81.57
2023-01-06T16:15:55.246Z,81.92
2023-01-06T16:21:00.595Z,81.99
2023-01-06T16:26:14.368Z,82.06
2023-01-06T16:31:38.331Z,82.68
2023-01-06T16:36:42.183Z,82.94
2023-01-06T16:42:38.777Z,83.57
2023-01-06T16:47:43.359Z,84.50
2023-01-06T16:52:50.357Z,84.91
2023-01-06T16:57:54.528Z,84.90
2023-01-06T17:02:58.162Z,84.98
2023-01-06T17:08:03.206Z,85.16
2023-01-06T17:13:25.614Z,85.28
2023-01-06T17:18:32.413Z,85.38
2023-01-06T17:24:08.531Z,85.78
2023-01-06T17:29:21.945Z,85.51
2023-01-06T17:34:33.998Z,85.56
2023-01-06T17:39:45.035Z,85.90
2023-01-06T17:44:52.504Z,86.02
2023-01-06T17:49:58.303Z,86.27
2023-01-06T17:55:44.867Z,86.47
2023-01-06T18:00:48.590Z,86.75
2023-01-06T18:06:26.577Z,86.93
2023-01-06T18:11:35.927Z,87.26
2023-01-06T18:16:39.868Z,87.49
2023-01-06T18:21:45.728Z,87.49
2023-01-06T18:27:00.796Z,87.82
2023-01-06T18:32:26.307Z,87.94
2023-01-06T18:37:34.706Z,88.07
2023-01-06T18:42:45.561Z,88.23
2023-01-06T18:48:17.357Z,88.50
2023-01-06T18:53:32.269Z,88.66
2023-01-06T18:58:47.452Z,89.05
2023-01-06T19:04:05.167Z,88.96
2023-01-06T19:09:19.576Z,89.09
2023-01-06T19:14:26.633Z,88.86
2023-01-06T19:19:41.096Z,88.89
2023-01-06T19:24:55.366Z,89.63
2023-01-06T19:30:41.916Z,90.55
2023-01-06T19:36:32.930Z,90.19
2023-01-06T19:41:37.233Z,90.11
2023-01-06T19:46:43.752Z,90.29
2023-01-06T19:51:53.019Z,90.24
2023-01-06T19:56:57.192Z,90.47
2023-01-06T20:02:10.640Z,90.71
2023-01-06T20:07:14.490Z,90.77
2023-01-06T20:12:25.760Z,91.02
2023-01-06T20:17:29.888Z,91.07
2023-01-06T20:22:34.232Z,90.90
2023-01-06T20:27:38.924Z,90.75
2023-01-06T20:32:43.541Z,90.93
2023-01-06T20:37:47.703Z,91.09
2023-01-06T20:42:53.362Z,90.65
2023-01-06T20:47:58.103Z,90.76
2023-01-06T20:53:02.078Z,91.06
2023-01-06T20:58:05.743Z,90.89
2023-01-06T21:03:09.880Z,90.85
2023-01-06T21:08:14.483Z,90.87
2023-01-06T21:13:18.534Z,91.20
2023-01-06T21:18:22.276Z,91.57
2023-01-06T21:23:26.164Z,91.74
2023-01-06T21:28:29.870Z,91.93
2023-01-06T21:33:33.542Z,91.80
2023-01-06T21:38:37.730Z,91.52
2023-01-06T21:43:41.543Z,91.71
2023-01-06T21:48:46.188Z,91.65
2023-01-06T21:53:49.976Z,91.60
2023-01-06T21:58:54.390Z,91.67
2023-01-06T22:03:58.088Z,91.72
2023-01-06T22:09:04.754Z,91.22
2023-01-06T22:14:09.486Z,91.13
2023-01-06T22:19:14.504Z,91.64
2023-01-06T22:24:18.873Z,91.80
2023-01-06T22:29:22.419Z,91.67
2023-01-06T22:34:26.174Z,91.86
2023-01-06T22:39:29.802Z,91.99
2023-01-06T22:44:33.462Z,91.95
2023-01-06T22:49:37.232Z,92.10
2023-01-06T22:54:40.963Z,92.27
2023-01-06T22:59:53.591Z,92.71
2023-01-06T23:05:00.194Z,92.76
2023-01-06T23:10:04.160Z,93.20
2023-01-06T23:15:09.065Z,93.06
2023-01-06T23:20:12.743Z,93.15
2023-01-06T23:25:16.409Z,92.69
2023-01-06T23:30:23.582Z,92.83
2023-01-06T23:35:27.377Z,93.54
2023-01-06T23:40:31.475Z,93.48
2023-01-06T23:45:38.323Z,93.99
2023-01-06T23:50:50.167Z,94.18
2023-01-06T23:56:18.143Z,93.88
